sensor_id;sensor_type;location;lat;lon;timestamp;temperature;humidity
39677;DHT22;27789;50.840;4.386;2022-12-29T00:00:49;11.50;99.90
39677;DHT22;27789;50.840;4.386;2022-12-29T00:03:15;11.50;99.90
39677;DHT22;27789;50.840;4.386;2022-12-29T00:05:40;11.50;99.90
39677;DHT22;27789;50.840;4.386;2022-12-29T00:08:06;11.50;99.90
39677;DHT22;27789;50.840;4.386;2022-12-29T00:10:31;11.50;99.90
39677;DHT22;27789;50.840;4.386;2022-12-29T00:12:58;11.50;99.90
39677;DHT22;27789;50.840;4.386;2022-12-29T00:15:35;11.60;99.90
39677;DHT22;27789;50.840;4.386;2022-12-29T00:18:05;11.70;99.90
39677;DHT22;27789;50.840;4.386;2022-12-29T00:20:34;11.70;99.90
39677;DHT22;27789;50.840;4.386;2022-12-29T00:23:10;11.80;99.90
39677;DHT22;27789;50.840;4.386;2022-12-29T00:25:46;11.80;99.90
39677;DHT22;27789;50.840;4.386;2022-12-29T00:28:22;11.90;99.90
39677;DHT22;27789;50.840;4.386;2022-12-29T00:31:00;11.90;99.90
39677;DHT22;27789;50.840;4.386;2022-12-29T00:33:36;11.90;99.90
39677;DHT22;27789;50.840;4.386;2022-12-29T00:36:15;11.90;99.90
39677;DHT22;27789;50.840;4.386;2022-12-29T00:38:48;12.00;99.90
39677;DHT22;27789;50.840;4.386;2022-12-29T00:41:25;12.00;99.90
39677;DHT22;27789;50.840;4.386;2022-12-29T00:44:02;12.10;99.90
39677;DHT22;27789;50.840;4.386;2022-12-29T00:46:34;12.10;99.90
39677;DHT22;27789;50.840;4.386;2022-12-29T00:49:00;12.10;99.90
39677;DHT22;27789;50.840;4.386;2022-12-29T00:51:37;12.10;99.90
39677;DHT22;27789;50.840;4.386;2022-12-29T00:54:03;12.10;99.90
39677;DHT22;27789;50.840;4.386;2022-12-29T00:56:28;12.10;99.90
39677;DHT22;27789;50.840;4.386;2022-12-29T00:58:54;12.10;99.90
39677;DHT22;27789;50.840;4.386;2022-12-29T01:01:19;12.10;99.90
39677;DHT22;27789;50.840;4.386;2022-12-29T01:03:45;12.10;99.90
39677;DHT22;27789;50.840;4.386;2022-12-29T01:06:11;12.10;99.90
39677;DHT22;27789;50.840;4.386;2022-12-29T01:08:37;12.10;99.90
39677;DHT22;27789;50.840;4.386;2022-12-29T01:13:30;12.10;99.90
39677;DHT22;27789;50.840;4.386;2022-12-29T01:15:56;12.10;99.90
39677;DHT22;27789;50.840;4.386;2022-12-29T01:18:22;12.00;99.90
39677;DHT22;27789;50.840;4.386;2022-12-29T01:20:48;12.00;99.90
39677;DHT22;27789;50.840;4.386;2022-12-29T01:23:13;11.90;99.90
39677;DHT22;27789;50.840;4.386;2022-12-29T01:25:39;11.80;99.90
39677;DHT22;27789;50.840;4.386;2022-12-29T01:28:05;11.60;99.90
39677;DHT22;27789;50.840;4.386;2022-12-29T01:30:32;11.60;99.90
39677;DHT22;27789;50.840;4.386;2022-12-29T01:32:58;11.50;99.90
39677;DHT22;27789;50.840;4.386;2022-12-29T01:35:23;11.40;99.90
39677;DHT22;27789;50.840;4.386;2022-12-29T01:37:49;11.30;99.90
39677;DHT22;27789;50.840;4.386;2022-12-29T01:40:14;11.30;99.90
39677;DHT22;27789;50.840;4.386;2022-12-29T01:42:40;11.30;99.90
39677;DHT22;27789;50.840;4.386;2022-12-29T01:45:17;11.30;99.90
39677;DHT22;27789;50.840;4.386;2022-12-29T01:47:45;11.40;99.90
39677;DHT22;27789;50.840;4.386;2022-12-29T01:50:22;11.30;99.90
39677;DHT22;27789;50.840;4.386;2022-12-29T01:53:04;11.40;99.90
39677;DHT22;27789;50.840;4.386;2022-12-29T01:55:36;11.40;99.90
39677;DHT22;27789;50.840;4.386;2022-12-29T01:58:05;11.40;99.90
39677;DHT22;27789;50.840;4.386;2022-12-29T02:00:31;11.40;99.90
39677;DHT22;27789;50.840;4.386;2022-12-29T02:02:57;11.40;99.90
39677;DHT22;27789;50.840;4.386;2022-12-29T02:05:36;11.40;99.90
39677;DHT22;27789;50.840;4.386;2022-12-29T02:08:03;11.40;99.90
39677;DHT22;27789;50.840;4.386;2022-12-29T02:10:31;11.40;99.90
39677;DHT22;27789;50.840;4.386;2022-12-29T02:12:58;11.30;99.90
39677;DHT22;27789;50.840;4.386;2022-12-29T02:15:53;11.10;99.90
39677;DHT22;27789;50.840;4.386;2022-12-29T02:32:11;10.40;99.90
39677;DHT22;27789;50.840;4.386;2022-12-29T02:40:17;10.20;99.90
39677;DHT22;27789;50.840;4.386;2022-12-29T02:45:31;10.10;99.90
39677;DHT22;27789;50.840;4.386;2022-12-29T02:48:00;10.00;99.90
39677;DHT22;27789;50.840;4.386;2022-12-29T02:50:33;10.00;99.90
39677;DHT22;27789;50.840;4.386;2022-12-29T02:53:08;9.90;99.90
39677;DHT22;27789;50.840;4.386;2022-12-29T02:55:34;9.90;99.90
39677;DHT22;27789;50.840;4.386;2022-12-29T02:58:15;9.80;99.90
39677;DHT22;27789;50.840;4.386;2022-12-29T03:01:02;9.80;99.90
39677;DHT22;27789;50.840;4.386;2022-12-29T03:06:29;9.80;99.90
39677;DHT22;27789;50.840;4.386;2022-12-29T03:12:15;9.70;99.90
39677;DHT22;27789;50.840;4.386;2022-12-29T03:15:00;9.60;99.90
39677;DHT22;27789;50.840;4.386;2022-12-29T03:20:25;9.50;99.90
39677;DHT22;27789;50.840;4.386;2022-12-29T03:22:56;9.50;99.90
39677;DHT22;27789;50.840;4.386;2022-12-29T03:25:32;9.50;99.90
39677;DHT22;27789;50.840;4.386;2022-12-29T03:28:02;9.50;99.90
39677;DHT22;27789;50.840;4.386;2022-12-29T03:30:29;9.60;99.90
39677;DHT22;27789;50.840;4.386;2022-12-29T03:33:01;9.60;99.90
39677;DHT22;27789;50.840;4.386;2022-12-29T03:35:30;9.80;99.90
39677;DHT22;27789;50.840;4.386;2022-12-29T03:40:49;9.80;99.90
39677;DHT22;27789;50.840;4.386;2022-12-29T03:43:15;9.80;99.90
39677;DHT22;27789;50.840;4.386;2022-12-29T03:45:42;9.90;99.90
39677;DHT22;27789;50.840;4.386;2022-12-29T03:48:07;10.00;99.90
39677;DHT22;27789;50.840;4.386;2022-12-29T03:50:33;9.90;99.90
39677;DHT22;27789;50.840;4.386;2022-12-29T03:52:59;9.90;99.90
39677;DHT22;27789;50.840;4.386;2022-12-29T03:55:24;10.00;99.90
39677;DHT22;27789;50.840;4.386;2022-12-29T03:57:49;10.00;99.90
39677;DHT22;27789;50.840;4.386;2022-12-29T04:00:15;10.00;99.90
39677;DHT22;27789;50.840;4.386;2022-12-29T04:02:41;10.00;99.90
39677;DHT22;27789;50.840;4.386;2022-12-29T04:05:06;10.00;99.90
39677;DHT22;27789;50.840;4.386;2022-12-29T04:07:32;10.00;99.90
39677;DHT22;27789;50.840;4.386;2022-12-29T04:09:57;10.00;99.90
39677;DHT22;27789;50.840;4.386;2022-12-29T04:12:23;9.90;99.90
39677;DHT22;27789;50.840;4.386;2022-12-29T04:14:48;10.00;99.90
39677;DHT22;27789;50.840;4.386;2022-12-29T04:17:14;9.90;99.90
39677;DHT22;27789;50.840;4.386;2022-12-29T04:19:39;9.90;99.90
39677;DHT22;27789;50.840;4.386;2022-12-29T04:22:05;9.90;99.90
39677;DHT22;27789;50.840;4.386;2022-12-29T04:24:30;9.90;99.90
39677;DHT22;27789;50.840;4.386;2022-12-29T04:26:56;9.90;99.90
39677;DHT22;27789;50.840;4.386;2022-12-29T04:29:21;10.00;99.90
39677;DHT22;27789;50.840;4.386;2022-12-29T04:31:47;10.00;99.90
39677;DHT22;27789;50.840;4.386;2022-12-29T04:34:12;10.00;99.90
39677;DHT22;27789;50.840;4.386;2022-12-29T04:36:38;10.00;99.90
39677;DHT22;27789;50.840;4.386;2022-12-29T04:39:05;10.00;99.90
39677;DHT22;27789;50.840;4.386;2022-12-29T04:41:30;10.00;99.90
39677;DHT22;27789;50.840;4.386;2022-12-29T04:43:56;10.00;99.90
39677;DHT22;27789;50.840;4.386;2022-12-29T04:46:21;10.00;99.90
39677;DHT22;27789;50.840;4.386;2022-12-29T04:48:47;10.10;99.90
39677;DHT22;27789;50.840;4.386;2022-12-29T04:51:12;10.20;99.90
39677;DHT22;27789;50.840;4.386;2022-12-29T04:53:38;10.20;99.90
39677;DHT22;27789;50.840;4.386;2022-12-29T04:56:03;10.30;99.90
39677;DHT22;27789;50.840;4.386;2022-12-29T04:58:29;10.30;99.90
39677;DHT22;27789;50.840;4.386;2022-12-29T05:00:54;10.40;99.90
39677;DHT22;27789;50.840;4.386;2022-12-29T05:03:20;10.40;99.90
39677;DHT22;27789;50.840;4.386;2022-12-29T05:05:45;10.40;99.90
39677;DHT22;27789;50.840;4.386;2022-12-29T05:08:11;10.40;99.90
39677;DHT22;27789;50.840;4.386;2022-12-29T05:10:36;10.40;99.90
39677;DHT22;27789;50.840;4.386;2022-12-29T05:13:02;10.40;99.90
39677;DHT22;27789;50.840;4.386;2022-12-29T05:15:27;10.50;99.90
39677;DHT22;27789;50.840;4.386;2022-12-29T05:17:53;10.40;99.90
39677;DHT22;27789;50.840;4.386;2022-12-29T05:20:18;10.50;99.90
39677;DHT22;27789;50.840;4.386;2022-12-29T05:22:44;10.40;99.90
39677;DHT22;27789;50.840;4.386;2022-12-29T05:25:09;10.50;99.90
39677;DHT22;27789;50.840;4.386;2022-12-29T05:27:35;10.50;99.90
39677;DHT22;27789;50.840;4.386;2022-12-29T05:30:00;10.50;99.90
39677;DHT22;27789;50.840;4.386;2022-12-29T05:32:26;10.50;99.90
39677;DHT22;27789;50.840;4.386;2022-12-29T05:34:51;10.60;99.90
39677;DHT22;27789;50.840;4.386;2022-12-29T05:37:17;10.50;99.90
39677;DHT22;27789;50.840;4.386;2022-12-29T05:39:42;10.60;99.90
39677;DHT22;27789;50.840;4.386;2022-12-29T05:42:08;10.60;99.90
39677;DHT22;27789;50.840;4.386;2022-12-29T05:44:33;10.70;99.90
39677;DHT22;27789;50.840;4.386;2022-12-29T05:46:59;10.70;99.90
39677;DHT22;27789;50.840;4.386;2022-12-29T05:49:24;10.70;99.90
39677;DHT22;27789;50.840;4.386;2022-12-29T05:51:50;10.70;99.90
39677;DHT22;27789;50.840;4.386;2022-12-29T05:54:15;10.70;99.90
39677;DHT22;27789;50.840;4.386;2022-12-29T05:56:41;10.70;99.90
39677;DHT22;27789;50.840;4.386;2022-12-29T05:59:06;10.70;99.90
39677;DHT22;27789;50.840;4.386;2022-12-29T06:01:32;10.60;99.90
39677;DHT22;27789;50.840;4.386;2022-12-29T06:03:59;10.50;99.90
39677;DHT22;27789;50.840;4.386;2022-12-29T06:06:24;10.60;99.90
39677;DHT22;27789;50.840;4.386;2022-12-29T06:08:50;10.60;99.90
39677;DHT22;27789;50.840;4.386;2022-12-29T06:11:15;10.60;99.90
39677;DHT22;27789;50.840;4.386;2022-12-29T06:13:42;10.60;99.90
39677;DHT22;27789;50.840;4.386;2022-12-29T06:16:07;10.50;99.90
39677;DHT22;27789;50.840;4.386;2022-12-29T06:18:33;10.50;99.90
39677;DHT22;27789;50.840;4.386;2022-12-29T06:20:59;10.50;99.90
39677;DHT22;27789;50.840;4.386;2022-12-29T06:23:25;10.50;99.90
39677;DHT22;27789;50.840;4.386;2022-12-29T06:25:51;10.50;99.90
39677;DHT22;27789;50.840;4.386;2022-12-29T06:28:16;10.50;99.90
39677;DHT22;27789;50.840;4.386;2022-12-29T06:30:43;10.50;99.90
39677;DHT22;27789;50.840;4.386;2022-12-29T06:33:09;10.60;99.90
39677;DHT22;27789;50.840;4.386;2022-12-29T06:35:34;10.60;99.90
39677;DHT22;27789;50.840;4.386;2022-12-29T06:38:00;10.60;99.90
39677;DHT22;27789;50.840;4.386;2022-12-29T06:40:25;10.60;99.90
39677;DHT22;27789;50.840;4.386;2022-12-29T06:42:51;10.60;99.90
39677;DHT22;27789;50.840;4.386;2022-12-29T06:45:16;10.60;99.90
39677;DHT22;27789;50.840;4.386;2022-12-29T06:47:42;10.70;99.90
39677;DHT22;27789;50.840;4.386;2022-12-29T06:50:07;10.70;99.90
39677;DHT22;27789;50.840;4.386;2022-12-29T06:52:33;10.70;99.90
39677;DHT22;27789;50.840;4.386;2022-12-29T06:54:59;10.70;99.90
39677;DHT22;27789;50.840;4.386;2022-12-29T06:57:24;10.70;99.90
39677;DHT22;27789;50.840;4.386;2022-12-29T06:59:51;10.70;99.90
39677;DHT22;27789;50.840;4.386;2022-12-29T07:02:17;10.60;99.90
39677;DHT22;27789;50.840;4.386;2022-12-29T07:04:44;10.60;99.90
39677;DHT22;27789;50.840;4.386;2022-12-29T07:07:10;10.70;99.90
39677;DHT22;27789;50.840;4.386;2022-12-29T07:09:35;10.70;99.90
39677;DHT22;27789;50.840;4.386;2022-12-29T07:12:01;10.70;99.90
39677;DHT22;27789;50.840;4.386;2022-12-29T07:14:26;10.70;99.90
39677;DHT22;27789;50.840;4.386;2022-12-29T07:16:52;10.60;99.90
39677;DHT22;27789;50.840;4.386;2022-12-29T07:19:17;10.70;99.90
39677;DHT22;27789;50.840;4.386;2022-12-29T07:21:43;10.70;99.90
39677;DHT22;27789;50.840;4.386;2022-12-29T07:24:08;10.70;99.90
39677;DHT22;27789;50.840;4.386;2022-12-29T07:26:34;10.70;99.90
39677;DHT22;27789;50.840;4.386;2022-12-29T07:29:01;10.70;99.90
39677;DHT22;27789;50.840;4.386;2022-12-29T07:31:27;10.70;99.90
39677;DHT22;27789;50.840;4.386;2022-12-29T07:33:53;10.70;99.90
39677;DHT22;27789;50.840;4.386;2022-12-29T07:36:19;10.70;99.90
39677;DHT22;27789;50.840;4.386;2022-12-29T07:38:44;10.60;99.90
39677;DHT22;27789;50.840;4.386;2022-12-29T07:41:10;10.60;99.90
39677;DHT22;27789;50.840;4.386;2022-12-29T07:43:36;10.60;99.90
39677;DHT22;27789;50.840;4.386;2022-12-29T07:46:01;10.70;99.90
39677;DHT22;27789;50.840;4.386;2022-12-29T07:48:27;10.70;99.90
39677;DHT22;27789;50.840;4.386;2022-12-29T07:50:52;10.70;99.90
39677;DHT22;27789;50.840;4.386;2022-12-29T07:53:18;10.70;99.90
39677;DHT22;27789;50.840;4.386;2022-12-29T07:55:43;10.70;99.90
39677;DHT22;27789;50.840;4.386;2022-12-29T07:58:09;10.70;99.90
39677;DHT22;27789;50.840;4.386;2022-12-29T08:00:34;10.70;99.90
39677;DHT22;27789;50.840;4.386;2022-12-29T08:03:00;10.70;99.90
39677;DHT22;27789;50.840;4.386;2022-12-29T08:05:25;10.80;99.90
39677;DHT22;27789;50.840;4.386;2022-12-29T08:07:51;10.70;99.90
39677;DHT22;27789;50.840;4.386;2022-12-29T08:10:17;10.70;99.90
39677;DHT22;27789;50.840;4.386;2022-12-29T08:12:42;10.70;99.90
39677;DHT22;27789;50.840;4.386;2022-12-29T08:15:09;10.70;99.90
39677;DHT22;27789;50.840;4.386;2022-12-29T08:17:35;10.70;99.90
39677;DHT22;27789;50.840;4.386;2022-12-29T08:20:00;10.70;99.90
39677;DHT22;27789;50.840;4.386;2022-12-29T08:22:26;10.60;99.90
39677;DHT22;27789;50.840;4.386;2022-12-29T08:24:51;10.60;99.90
39677;DHT22;27789;50.840;4.386;2022-12-29T08:27:17;10.60;99.90
39677;DHT22;27789;50.840;4.386;2022-12-29T08:29:43;10.60;99.90
39677;DHT22;27789;50.840;4.386;2022-12-29T08:32:08;10.60;99.90
39677;DHT22;27789;50.840;4.386;2022-12-29T08:34:34;10.60;99.90
39677;DHT22;27789;50.840;4.386;2022-12-29T08:37:00;10.60;99.90
39677;DHT22;27789;50.840;4.386;2022-12-29T08:39:25;10.60;99.90
39677;DHT22;27789;50.840;4.386;2022-12-29T08:41:50;10.70;99.90
39677;DHT22;27789;50.840;4.386;2022-12-29T08:44:16;10.60;99.90
39677;DHT22;27789;50.840;4.386;2022-12-29T08:46:44;10.60;99.90
39677;DHT22;27789;50.840;4.386;2022-12-29T08:49:10;10.70;99.90
39677;DHT22;27789;50.840;4.386;2022-12-29T08:51:35;10.60;99.90
39677;DHT22;27789;50.840;4.386;2022-12-29T08:54:01;10.60;99.90
39677;DHT22;27789;50.840;4.386;2022-12-29T08:56:26;10.70;99.90
39677;DHT22;27789;50.840;4.386;2022-12-29T08:58:52;10.70;99.90
39677;DHT22;27789;50.840;4.386;2022-12-29T09:01:18;10.70;99.90
39677;DHT22;27789;50.840;4.386;2022-12-29T09:03:44;10.70;99.90
39677;DHT22;27789;50.840;4.386;2022-12-29T09:06:09;10.70;99.90
39677;DHT22;27789;50.840;4.386;2022-12-29T09:08:35;10.70;99.90
39677;DHT22;27789;50.840;4.386;2022-12-29T09:13:37;10.50;99.90
39677;DHT22;27789;50.840;4.386;2022-12-29T09:16:02;10.50;99.90
39677;DHT22;27789;50.840;4.386;2022-12-29T09:18:28;10.50;99.90
39677;DHT22;27789;50.840;4.386;2022-12-29T09:20:57;10.60;99.90
39677;DHT22;27789;50.840;4.386;2022-12-29T09:23:23;10.60;99.90
39677;DHT22;27789;50.840;4.386;2022-12-29T09:25:48;10.60;99.90
39677;DHT22;27789;50.840;4.386;2022-12-29T09:28:14;10.60;99.90
39677;DHT22;27789;50.840;4.386;2022-12-29T09:30:39;10.50;99.90
39677;DHT22;27789;50.840;4.386;2022-12-29T09:33:05;10.50;99.90
39677;DHT22;27789;50.840;4.386;2022-12-29T09:35:30;10.40;99.90
39677;DHT22;27789;50.840;4.386;2022-12-29T09:37:56;10.30;99.90
39677;DHT22;27789;50.840;4.386;2022-12-29T09:40:24;10.40;99.90
39677;DHT22;27789;50.840;4.386;2022-12-29T09:43:03;10.40;99.90
39677;DHT22;27789;50.840;4.386;2022-12-29T09:45:34;10.40;99.90
39677;DHT22;27789;50.840;4.386;2022-12-29T09:48:03;10.50;99.90
39677;DHT22;27789;50.840;4.386;2022-12-29T09:50:30;10.60;99.90
39677;DHT22;27789;50.840;4.386;2022-12-29T09:53:01;10.80;99.90
39677;DHT22;27789;50.840;4.386;2022-12-29T09:58:10;10.90;99.90
39677;DHT22;27789;50.840;4.386;2022-12-29T10:00:41;10.90;99.90
39677;DHT22;27789;50.840;4.386;2022-12-29T10:03:15;10.90;99.90
39677;DHT22;27789;50.840;4.386;2022-12-29T10:08:19;10.90;99.90
39677;DHT22;27789;50.840;4.386;2022-12-29T10:10:50;10.80;99.90
39677;DHT22;27789;50.840;4.386;2022-12-29T10:21:06;10.70;99.90
39677;DHT22;27789;50.840;4.386;2022-12-29T10:23:35;10.60;99.90
39677;DHT22;27789;50.840;4.386;2022-12-29T10:26:04;10.70;99.90
39677;DHT22;27789;50.840;4.386;2022-12-29T10:28:34;10.70;99.90
39677;DHT22;27789;50.840;4.386;2022-12-29T10:31:00;10.80;99.90
39677;DHT22;27789;50.840;4.386;2022-12-29T10:33:30;10.70;99.90
39677;DHT22;27789;50.840;4.386;2022-12-29T10:35:57;10.70;99.90
39677;DHT22;27789;50.840;4.386;2022-12-29T10:40:51;10.70;99.90
39677;DHT22;27789;50.840;4.386;2022-12-29T10:43:25;10.70;99.90
39677;DHT22;27789;50.840;4.386;2022-12-29T10:45:51;10.70;99.90
39677;DHT22;27789;50.840;4.386;2022-12-29T10:48:35;10.80;99.90
39677;DHT22;27789;50.840;4.386;2022-12-29T10:51:02;10.90;99.90
39677;DHT22;27789;50.840;4.386;2022-12-29T10:53:32;10.90;99.90
39677;DHT22;27789;50.840;4.386;2022-12-29T10:55:59;10.90;99.90
39677;DHT22;27789;50.840;4.386;2022-12-29T10:58:26;10.90;99.90
39677;DHT22;27789;50.840;4.386;2022-12-29T11:00:53;10.90;99.90
39677;DHT22;27789;50.840;4.386;2022-12-29T11:08:45;11.00;99.90
39677;DHT22;27789;50.840;4.386;2022-12-29T11:11:12;11.00;99.90
39677;DHT22;27789;50.840;4.386;2022-12-29T11:13:50;11.00;99.90
39677;DHT22;27789;50.840;4.386;2022-12-29T11:18:53;11.10;99.90
39677;DHT22;27789;50.840;4.386;2022-12-29T11:21:39;11.10;99.90
39677;DHT22;27789;50.840;4.386;2022-12-29T11:26:43;11.40;99.90
39677;DHT22;27789;50.840;4.386;2022-12-29T11:29:26;11.20;99.90
39677;DHT22;27789;50.840;4.386;2022-12-29T11:31:53;11.10;99.90
39677;DHT22;27789;50.840;4.386;2022-12-29T11:36:45;11.00;99.90
39677;DHT22;27789;50.840;4.386;2022-12-29T11:41:50;10.80;99.90
39677;DHT22;27789;50.840;4.386;2022-12-29T11:44:16;10.80;99.90
39677;DHT22;27789;50.840;4.386;2022-12-29T11:46:42;10.80;99.90
39677;DHT22;27789;50.840;4.386;2022-12-29T11:49:12;10.80;99.90
39677;DHT22;27789;50.840;4.386;2022-12-29T11:51:42;10.80;99.90
39677;DHT22;27789;50.840;4.386;2022-12-29T11:54:09;10.80;99.90
39677;DHT22;27789;50.840;4.386;2022-12-29T11:56:37;10.80;99.90
39677;DHT22;27789;50.840;4.386;2022-12-29T12:01:40;10.70;99.90
39677;DHT22;27789;50.840;4.386;2022-12-29T12:04:08;10.70;99.90
39677;DHT22;27789;50.840;4.386;2022-12-29T12:06:36;10.70;99.90
39677;DHT22;27789;50.840;4.386;2022-12-29T12:09:08;10.60;99.90
39677;DHT22;27789;50.840;4.386;2022-12-29T12:11:39;10.70;99.90
39677;DHT22;27789;50.840;4.386;2022-12-29T12:21:36;10.50;99.90
39677;DHT22;27789;50.840;4.386;2022-12-29T12:29:20;10.60;99.90
39677;DHT22;27789;50.840;4.386;2022-12-29T12:31:49;10.50;99.90
39677;DHT22;27789;50.840;4.386;2022-12-29T12:34:22;10.60;99.90
39677;DHT22;27789;50.840;4.386;2022-12-29T12:39:22;10.50;99.90
39677;DHT22;27789;50.840;4.386;2022-12-29T12:41:58;10.50;99.90
39677;DHT22;27789;50.840;4.386;2022-12-29T13:12:33;10.60;99.90
39677;DHT22;27789;50.840;4.386;2022-12-29T13:17:41;10.60;99.90
39677;DHT22;27789;50.840;4.386;2022-12-29T13:22:42;10.60;99.90
39677;DHT22;27789;50.840;4.386;2022-12-29T13:28:06;10.60;99.90
39677;DHT22;27789;50.840;4.386;2022-12-29T13:30:45;10.60;99.90
39677;DHT22;27789;50.840;4.386;2022-12-29T13:33:16;10.60;99.90
39677;DHT22;27789;50.840;4.386;2022-12-29T13:38:22;10.70;99.90
39677;DHT22;27789;50.840;4.386;2022-12-29T13:41:11;10.70;99.90
39677;DHT22;27789;50.840;4.386;2022-12-29T13:43:35;10.60;99.90
39677;DHT22;27789;50.840;4.386;2022-12-29T13:46:05;10.60;99.90
39677;DHT22;27789;50.840;4.386;2022-12-29T13:49:15;10.80;99.90
39677;DHT22;27789;50.840;4.386;2022-12-29T13:51:20;11.00;99.90
39677;DHT22;27789;50.840;4.386;2022-12-29T13:56:26;11.10;99.90
39677;DHT22;27789;50.840;4.386;2022-12-29T14:01:34;10.90;99.90
39677;DHT22;27789;50.840;4.386;2022-12-29T14:04:02;10.80;99.90
39677;DHT22;27789;50.840;4.386;2022-12-29T14:06:32;10.80;99.90
39677;DHT22;27789;50.840;4.386;2022-12-29T14:09:03;10.80;99.90
39677;DHT22;27789;50.840;4.386;2022-12-29T14:11:36;10.80;99.90
39677;DHT22;27789;50.840;4.386;2022-12-29T14:16:38;10.70;99.90
39677;DHT22;27789;50.840;4.386;2022-12-29T14:19:05;10.70;99.90
39677;DHT22;27789;50.840;4.386;2022-12-29T14:21:31;10.60;99.90
39677;DHT22;27789;50.840;4.386;2022-12-29T14:26:34;10.50;99.90
39677;DHT22;27789;50.840;4.386;2022-12-29T14:31:37;10.50;99.90
39677;DHT22;27789;50.840;4.386;2022-12-29T14:39:03;10.60;99.90
39677;DHT22;27789;50.840;4.386;2022-12-29T14:43:56;10.60;99.90
39677;DHT22;27789;50.840;4.386;2022-12-29T14:46:22;10.50;99.90
39677;DHT22;27789;50.840;4.386;2022-12-29T14:48:52;10.60;99.90
39677;DHT22;27789;50.840;4.386;2022-12-29T14:51:30;10.50;99.90
39677;DHT22;27789;50.840;4.386;2022-12-29T14:53:56;10.40;99.90
39677;DHT22;27789;50.840;4.386;2022-12-29T14:56:26;10.20;99.90
39677;DHT22;27789;50.840;4.386;2022-12-29T14:58:53;10.20;99.90
39677;DHT22;27789;50.840;4.386;2022-12-29T15:03:57;10.00;99.90
39677;DHT22;27789;50.840;4.386;2022-12-29T15:06:23;9.80;99.90
39677;DHT22;27789;50.840;4.386;2022-12-29T15:16:40;9.30;99.90
39677;DHT22;27789;50.840;4.386;2022-12-29T15:19:20;9.20;99.90
39677;DHT22;27789;50.840;4.386;2022-12-29T15:21:45;9.10;99.90
39677;DHT22;27789;50.840;4.386;2022-12-29T15:24:11;9.00;99.90
39677;DHT22;27789;50.840;4.386;2022-12-29T15:26:38;8.90;99.90
39677;DHT22;27789;50.840;4.386;2022-12-29T15:29:04;8.80;99.90
39677;DHT22;27789;50.840;4.386;2022-12-29T15:31:30;8.80;99.90
39677;DHT22;27789;50.840;4.386;2022-12-29T15:34:02;8.80;99.90
39677;DHT22;27789;50.840;4.386;2022-12-29T15:36:28;8.80;99.90
39677;DHT22;27789;50.840;4.386;2022-12-29T15:38:54;8.80;99.90
39677;DHT22;27789;50.840;4.386;2022-12-29T15:46:23;8.70;99.90
39677;DHT22;27789;50.840;4.386;2022-12-29T15:48:48;8.60;99.90
39677;DHT22;27789;50.840;4.386;2022-12-29T15:53:42;8.70;99.90
39677;DHT22;27789;50.840;4.386;2022-12-29T15:56:11;8.70;99.90
39677;DHT22;27789;50.840;4.386;2022-12-29T15:58:41;8.80;99.90
39677;DHT22;27789;50.840;4.386;2022-12-29T16:04:05;8.80;99.90
39677;DHT22;27789;50.840;4.386;2022-12-29T16:06:32;8.80;99.90
39677;DHT22;27789;50.840;4.386;2022-12-29T16:11:36;8.70;99.90
39677;DHT22;27789;50.840;4.386;2022-12-29T16:14:02;8.70;99.90
39677;DHT22;27789;50.840;4.386;2022-12-29T16:16:32;8.60;99.90
39677;DHT22;27789;50.840;4.386;2022-12-29T16:19:01;8.60;99.90
39677;DHT22;27789;50.840;4.386;2022-12-29T16:21:30;8.60;99.90
39677;DHT22;27789;50.840;4.386;2022-12-29T16:23:59;8.60;99.90
39677;DHT22;27789;50.840;4.386;2022-12-29T16:26:26;8.50;99.90
39677;DHT22;27789;50.840;4.386;2022-12-29T16:28:54;8.60;99.90
39677;DHT22;27789;50.840;4.386;2022-12-29T16:31:24;8.60;99.90
39677;DHT22;27789;50.840;4.386;2022-12-29T16:33:52;8.60;99.90
39677;DHT22;27789;50.840;4.386;2022-12-29T16:41:31;8.60;99.90
39677;DHT22;27789;50.840;4.386;2022-12-29T16:46:33;8.60;99.90
39677;DHT22;27789;50.840;4.386;2022-12-29T16:48:59;8.60;99.90
39677;DHT22;27789;50.840;4.386;2022-12-29T16:51:31;8.60;99.90
39677;DHT22;27789;50.840;4.386;2022-12-29T16:53:57;8.70;99.90
39677;DHT22;27789;50.840;4.386;2022-12-29T16:56:25;8.70;99.90
39677;DHT22;27789;50.840;4.386;2022-12-29T17:01:38;8.70;99.90
39677;DHT22;27789;50.840;4.386;2022-12-29T17:04:05;8.70;99.90
39677;DHT22;27789;50.840;4.386;2022-12-29T17:06:31;8.70;99.90
39677;DHT22;27789;50.840;4.386;2022-12-29T17:08:57;8.70;99.90
39677;DHT22;27789;50.840;4.386;2022-12-29T17:13:59;8.60;99.90
39677;DHT22;27789;50.840;4.386;2022-12-29T17:16:25;8.60;99.90
39677;DHT22;27789;50.840;4.386;2022-12-29T17:18:51;8.60;99.90
39677;DHT22;27789;50.840;4.386;2022-12-29T17:21:16;8.60;99.90
39677;DHT22;27789;50.840;4.386;2022-12-29T17:23:41;8.60;99.90
39677;DHT22;27789;50.840;4.386;2022-12-29T17:26:07;8.60;99.90
39677;DHT22;27789;50.840;4.386;2022-12-29T17:28:33;8.60;99.90
39677;DHT22;27789;50.840;4.386;2022-12-29T17:31:02;8.60;99.90
39677;DHT22;27789;50.840;4.386;2022-12-29T17:33:30;8.60;99.90
39677;DHT22;27789;50.840;4.386;2022-12-29T17:35:57;8.60;99.90
39677;DHT22;27789;50.840;4.386;2022-12-29T17:38:25;8.60;99.90
39677;DHT22;27789;50.840;4.386;2022-12-29T17:40:52;8.60;99.90
39677;DHT22;27789;50.840;4.386;2022-12-29T17:43:17;8.60;99.90
39677;DHT22;27789;50.840;4.386;2022-12-29T17:45:45;8.60;99.90
39677;DHT22;27789;50.840;4.386;2022-12-29T17:48:12;8.60;99.90
39677;DHT22;27789;50.840;4.386;2022-12-29T17:50:38;8.60;99.90
39677;DHT22;27789;50.840;4.386;2022-12-29T17:53:05;8.70;99.90
39677;DHT22;27789;50.840;4.386;2022-12-29T17:55:31;8.70;99.90
39677;DHT22;27789;50.840;4.386;2022-12-29T17:57:57;8.70;99.90
39677;DHT22;27789;50.840;4.386;2022-12-29T18:00:23;8.70;99.90
39677;DHT22;27789;50.840;4.386;2022-12-29T18:02:51;8.60;99.90
39677;DHT22;27789;50.840;4.386;2022-12-29T18:05:20;8.60;99.90
39677;DHT22;27789;50.840;4.386;2022-12-29T18:07:46;8.50;99.90
39677;DHT22;27789;50.840;4.386;2022-12-29T18:10:12;8.50;99.90
39677;DHT22;27789;50.840;4.386;2022-12-29T18:12:38;8.40;99.90
39677;DHT22;27789;50.840;4.386;2022-12-29T18:15:04;8.40;99.90
39677;DHT22;27789;50.840;4.386;2022-12-29T18:17:30;8.40;99.90
39677;DHT22;27789;50.840;4.386;2022-12-29T18:19:56;8.40;99.90
39677;DHT22;27789;50.840;4.386;2022-12-29T18:22:22;8.30;99.90
39677;DHT22;27789;50.840;4.386;2022-12-29T18:24:48;8.30;99.90
39677;DHT22;27789;50.840;4.386;2022-12-29T18:27:14;8.30;99.90
39677;DHT22;27789;50.840;4.386;2022-12-29T18:29:40;8.30;99.90
39677;DHT22;27789;50.840;4.386;2022-12-29T18:32:12;8.40;99.90
39677;DHT22;27789;50.840;4.386;2022-12-29T18:34:38;8.40;99.90
39677;DHT22;27789;50.840;4.386;2022-12-29T18:37:04;8.30;99.90
39677;DHT22;27789;50.840;4.386;2022-12-29T18:39:30;8.30;99.90
39677;DHT22;27789;50.840;4.386;2022-12-29T18:41:55;8.40;99.90